Latest Weather Observations for Sydney Harbour

IDN60801

Issued at 11:43 pm EST Tuesday 21 May 2024 (issued every 10 minutes, with the page automatically refreshed every 10 minutes)

About weather observations | Map of weather stations | Latest weather observations for NSW | Other Formats
Station Details ID: 066196 Name: WEDDING CAKE WEST Lat: -33.84 Lon: 151.26 Height: 6.0 m
Data from the previous 72 hours. | See also: Recent months at Sydney Harbour
Date/Time
EST
Temp
°C
App
Temp
°C
Dew
Point
°C
Rel
Hum
%
Delta-T
°C
Wind Press
QNH
hPa
Press
MSL
hPa
Rain since
9am
mm
Dir  Spd
km/h
Gust
km/h
Spd
kts
Gust
kts
21/11:30pm 14.2 - - - - WNW 22 28 12 15 - - -
21/11:00pm 14.6 - - - - W 22 26 12 14 - - -
21/10:30pm 15.1 - - - - W 20 26 11 14 - - -
21/10:00pm 15.4 - - - - W 19 22 10 12 - - -
21/09:30pm 15.9 - - - - WSW 20 28 11 15 - - -
21/09:00pm 16.3 - - - - WSW 20 28 11 15 - - -
21/08:30pm 17.0 - - - - SSW 28 33 15 18 - - -
21/08:00pm 17.0 - - - - SSW 26 32 14 17 - - -
21/07:30pm 17.1 - - - - SSW 28 35 15 19 - - -
21/07:00pm 17.0 - - - - SSW 32 44 17 24 - - -
21/06:30pm 17.1 - - - - SSW 32 39 17 21 - - -
21/06:00pm 17.1 - - - - SSW 30 39 16 21 - - -
21/05:30pm 17.1 - - - - SSW 32 41 17 22 - - -
21/05:00pm 17.3 - - - - SSW 32 39 17 21 - - -
21/04:30pm 17.4 - - - - SSW 33 46 18 25 - - -
21/04:00pm 17.3 - - - - SSW 35 44 19 24 - - -
21/03:30pm 17.2 - - - - SSW 35 46 19 25 - - -
21/03:00pm 17.2 - - - - SSW 35 44 19 24 - - -
21/02:30pm 17.1 - - - - SSW 39 48 21 26 - - -
21/02:00pm 17.0 - - - - SSW 37 50 20 27 - - -
21/01:30pm 17.2 - - - - SSW 37 46 20 25 - - -
21/01:00pm 17.1 - - - - SSW 41 52 22 28 - - -
21/12:30pm 17.3 - - - - SW 43 52 23 28 - - -
21/12:00pm 17.3 - - - - SSW 41 50 22 27 - - -
21/11:30am 17.1 - - - - SSW 37 50 20 27 - - -
21/11:00am 16.8 - - - - SW 41 48 22 26 - - -
21/10:30am 16.8 - - - - SW 41 48 22 26 - - -
21/10:00am 16.6 - - - - SW 32 39 17 21 - - -
21/09:30am 16.4 - - - - SSW 32 39 17 21 - - -
21/09:00am 16.2 - - - - WSW 28 41 15 22 - - -
21/08:30am 15.4 - - - - SW 26 35 14 19 - - -
21/08:00am 14.5 - - - - W 24 32 13 17 - - -
21/07:30am 14.2 - - - - W 20 24 11 13 - - -
21/07:00am 14.9 - - - - WSW 28 33 15 18 - - -
21/06:30am 14.5 - - - - WSW 24 33 13 18 - - -
21/06:00am 15.1 - - - - WSW 30 35 16 19 - - -
21/05:30am 15.5 - - - - WSW 32 39 17 21 - - -
21/05:00am 15.3 - - - - WSW 35 43 19 23 - - -
21/04:30am 15.3 - - - - SW 37 46 20 25 - - -
21/04:00am 15.6 - - - - SW 33 43 18 23 - - -
21/03:30am 15.4 - - - - SW 37 46 20 25 - - -
21/03:00am 15.0 - - - - SW 39 48 21 26 - - -
21/02:30am 15.5 - - - - SW 33 43 18 23 - - -
21/02:00am 15.1 - - - - SW 35 46 19 25 - - -
21/01:30am 15.5 - - - - SW 41 52 22 28 - - -
21/01:00am 15.3 - - - - SW 44 57 24 31 - - -
21/12:30am 16.4 - - - - SW 32 41 17 22 - - -
21/12:00am 15.9 - - - - SW 28 37 15 20 - - -
 
Date/Time
EST
Temp
°C
App
Temp
°C
Dew
Point
°C
Rel
Hum
%
Delta-T
°C
Wind Press
QNH
hPa
Press
MSL
hPa
Rain since
9am
mm
Dir  Spd
km/h
Gust
km/h
Spd
kts
Gust
kts
20/11:30pm 16.6 - - - - SW 30 35 16 19 - - -
20/11:00pm 16.7 - - - - WSW 28 39 15 21 - - -
20/10:30pm 16.1 - - - - WSW 26 33 14 18 - - -
20/10:00pm 16.4 - - - - WSW 28 41 15 22 - - -
20/09:30pm 16.9 - - - - SW 35 43 19 23 - - -
20/09:00pm 16.8 - - - - SW 32 41 17 22 - - -
20/08:30pm 16.4 - - - - SW 32 37 17 20 - - -
20/08:00pm 15.6 - - - - SW 26 33 14 18 - - -
20/07:30pm 16.6 - - - - WSW 24 32 13 17 - - -
20/07:00pm 16.4 - - - - SW 30 37 16 20 - - -
20/06:30pm 16.2 - - - - SSE 24 30 13 16 - - -
20/06:00pm 17.3 - - - - SW 32 37 17 20 - - -
20/05:30pm 17.4 - - - - SW 32 35 17 19 - - -
20/05:00pm 17.5 - - - - SW 35 46 19 25 - - -
20/04:30pm 17.6 - - - - SSW 35 50 19 27 - - -
20/04:00pm 17.4 - - - - SSW 32 39 17 21 - - -
20/03:30pm 17.3 - - - - SW 39 50 21 27 - - -
20/03:00pm 17.4 - - - - SW 39 48 21 26 - - -
20/02:30pm 16.6 - - - - SSW 35 44 19 24 - - -
20/02:09pm 16.5 - - - - SW 39 61 21 33 - - -
20/02:00pm 17.4 - - - - SW 37 46 20 25 - - -
20/01:30pm 17.0 - - - - SSW 35 46 19 25 - - -
20/01:00pm 16.5 - - - - SW 39 48 21 26 - - -
20/12:30pm 15.9 - - - - SSW 39 54 21 29 - - -
20/12:00pm 16.8 - - - - SSW 35 48 19 26 - - -
20/11:30am 16.7 - - - - SSW 37 46 20 25 - - -
20/11:00am 16.7 - - - - SW 37 50 20 27 - - -
20/10:55am 16.7 - - - - SW 33 50 18 27 - - -
20/10:30am 15.1 - - - - W 24 30 13 16 - - -
20/10:00am 14.2 - - - - W 26 32 14 17 - - -
20/09:30am 13.4 - - - - W 24 30 13 16 - - -
20/09:00am 12.8 - - - - W 28 33 15 18 - - -
20/08:30am 12.0 - - - - W 28 33 15 18 - - -
20/08:00am 11.5 - - - - W 28 39 15 21 - - -
20/07:30am 11.3 - - - - W 30 39 16 21 - - -
20/07:00am 11.3 - - - - W 32 41 17 22 - - -
20/06:30am 11.4 - - - - W 30 37 16 20 - - -
20/06:00am 11.4 - - - - W 32 41 17 22 - - -
20/05:30am 11.4 - - - - W 33 43 18 23 - - -
20/05:00am 11.6 - - - - W 30 39 16 21 - - -
20/04:30am 11.5 - - - - W 28 35 15 19 - - -
20/04:00am 12.0 - - - - W 28 35 15 19 - - -
20/03:30am 11.9 - - - - W 28 35 15 19 - - -
20/03:00am 12.1 - - - - W 30 35 16 19 - - -
20/02:30am 12.3 - - - - W 30 39 16 21 - - -
20/02:00am 12.3 - - - - W 28 37 15 20 - - -
20/01:30am 12.3 - - - - W 30 37 16 20 - - -
20/01:00am 12.8 - - - - W 32 43 17 23 - - -
20/12:30am 13.2 - - - - W 30 37 16 20 - - -
20/12:00am 13.1 - - - - W 22 28 12 15 - - -
 
Date/Time
EST
Temp
°C
App
Temp
°C
Dew
Point
°C
Rel
Hum
%
Delta-T
°C
Wind Press
QNH
hPa
Press
MSL
hPa
Rain since
9am
mm
Dir  Spd
km/h
Gust
km/h
Spd
kts
Gust
kts
19/11:30pm 13.4 - - - - W 22 28 12 15 - - -
19/11:00pm 13.5 - - - - W 22 28 12 15 - - -
19/10:30pm 13.8 - - - - W 19 26 10 14 - - -
19/10:00pm 13.9 - - - - W 17 20 9 11 - - -
19/09:30pm 14.8 - - - - W 17 26 9 14 - - -
19/09:00pm 14.8 - - - - W 15 19 8 10 - - -
19/08:30pm 14.6 - - - - W 17 19 9 10 - - -
19/08:00pm 14.9 - - - - W 11 11 6 6 - - -
19/07:30pm 15.3 - - - - WSW 7 9 4 5 - - -
19/07:00pm 15.6 - - - - WSW 7 11 4 6 - - -
19/06:30pm 15.6 - - - - SSW 7 9 4 5 - - -
19/06:00pm 15.8 - - - - SSW 6 7 3 4 - - -
19/05:30pm 16.1 - - - - WSW 7 11 4 6 - - -
19/05:00pm 16.8 - - - - W 13 17 7 9 - - -
19/04:30pm 17.3 - - - - W 13 20 7 11 - - -
19/04:00pm 17.2 - - - - WSW 15 19 8 10 - - -
19/03:30pm 17.4 - - - - W 17 22 9 12 - - -
19/03:00pm 17.3 - - - - W 17 22 9 12 - - -
19/02:30pm 16.9 - - - - SW 15 20 8 11 - - -
19/02:00pm 16.7 - - - - SSW 15 22 8 12 - - -
19/01:30pm 16.4 - - - - SSW 17 20 9 11 - - -
19/01:00pm 16.4 - - - - WSW 15 20 8 11 - - -
19/12:30pm 16.1 - - - - WSW 19 26 10 14 - - -
19/12:00pm 15.6 - - - - WSW 20 28 11 15 - - -
19/11:30am 15.4 - - - - WSW 19 26 10 14 - - -
19/11:00am 14.6 - - - - W 20 30 11 16 - - -
19/10:30am 13.7 - - - - W 28 39 15 21 - - -
19/10:00am 12.9 - - - - W 24 32 13 17 - - -
19/09:30am 12.4 - - - - W 22 30 12 16 - - -
19/09:00am 11.9 - - - - W 30 39 16 21 - - -
19/08:30am 11.3 - - - - W 33 44 18 24 - - -
19/08:00am 11.0 - - - - W 30 37 16 20 - - -
19/07:30am 10.8 - - - - W 28 37 15 20 - - -
19/07:00am 10.5 - - - - W 32 39 17 21 - - -
19/06:30am 11.1 - - - - W 28 37 15 20 - - -
19/06:00am 10.6 - - - - W 32 43 17 23 - - -
19/05:30am 10.8 - - - - W 32 41 17 22 - - -
19/05:00am 10.8 - - - - W 32 41 17 22 - - -
19/04:30am 10.9 - - - - W 26 33 14 18 - - -
19/04:00am 11.6 - - - - WSW 26 33 14 18 - - -
19/03:30am 11.3 - - - - W 28 39 15 21 - - -
19/03:00am 11.4 - - - - W 28 35 15 19 - - -
19/02:30am 11.8 - - - - W 26 43 14 23 - - -
19/02:00am 11.8 - - - - W 32 41 17 22 - - -
19/01:30am 12.1 - - - - W 22 30 12 16 - - -
19/01:00am 12.3 - - - - W 28 39 15 21 - - -
19/12:30am 12.6 - - - - W 24 30 13 16 - - -
19/12:00am 12.6 - - - - W 30 39 16 21 - - -

Other formats

Comma delimited format used in spreadsheet applications
http://www.bom.gov.au/fwo/IDN60801/IDN60801.95766.axf

JavaScript Object Notation format (JSON) in row-major order
http://www.bom.gov.au/fwo/IDN60801/IDN60801.95766.json

Data quality

Most of these data are generated automatically and are frequently updated. Quality checks on data are not normally performed. It is possible for incorrect values to appear. Refer to information at About Latest Weather Observations and please check the disclaimer before using these data.